createdAt,value
2018-08-17T00:00:29.777Z,21.45
2018-08-17T00:01:30.986Z,21.36
2018-08-17T00:02:30.361Z,21.40
2018-08-17T00:03:29.300Z,21.43
2018-08-17T00:04:29.418Z,21.37
2018-08-17T00:05:29.370Z,21.43
2018-08-17T00:07:29.863Z,21.42
2018-08-17T00:08:28.974Z,21.30
2018-08-17T00:09:29.340Z,21.18
2018-08-17T00:10:29.347Z,21.37
2018-08-17T00:11:29.312Z,21.28
2018-08-17T00:12:29.890Z,21.31
2018-08-17T00:13:28.950Z,21.36
2018-08-17T00:14:29.419Z,21.36
2018-08-17T00:15:29.373Z,21.34
2018-08-17T00:16:29.361Z,21.46
2018-08-17T00:17:29.381Z,21.37
2018-08-17T00:18:29.344Z,21.34
2018-08-17T00:19:29.412Z,21.38
2018-08-17T00:20:29.975Z,21.42
2018-08-17T00:21:28.993Z,21.46
2018-08-17T00:22:29.349Z,21.40
2018-08-17T00:23:31.845Z,21.46
2018-08-17T00:24:29.048Z,21.51
2018-08-17T00:25:29.805Z,21.51
2018-08-17T00:26:29.039Z,21.49
2018-08-17T00:27:49.449Z,21.52
2018-08-17T00:28:29.005Z,21.46
2018-08-17T00:29:29.331Z,21.48
2018-08-17T00:30:29.305Z,21.49
2018-08-17T00:31:28.987Z,21.49
2018-08-17T00:32:29.312Z,21.46
2018-08-17T00:33:29.370Z,21.59
2018-08-17T00:34:28.914Z,21.55
2018-08-17T00:35:29.443Z,21.46
2018-08-17T00:36:29.318Z,21.52
2018-08-17T00:37:29.099Z,21.56
2018-08-17T00:38:29.887Z,21.64
2018-08-17T00:39:29.401Z,21.53
2018-08-17T00:40:28.956Z,21.52
2018-08-17T00:41:29.418Z,21.56
2018-08-17T00:42:29.411Z,21.52
2018-08-17T00:43:28.942Z,21.56
2018-08-17T00:44:29.446Z,21.53
2018-08-17T00:45:31.158Z,21.63
2018-08-17T00:46:28.949Z,21.61
2018-08-17T00:47:29.392Z,21.58
2018-08-17T00:49:29.115Z,21.56
2018-08-17T00:50:29.419Z,21.46
2018-08-17T00:51:29.434Z,21.46
2018-08-17T00:52:28.942Z,21.53
2018-08-17T00:53:29.282Z,21.56
2018-08-17T00:54:29.308Z,21.46
2018-08-17T00:55:29.045Z,21.52
2018-08-17T00:56:31.323Z,21.59
2018-08-17T00:57:29.362Z,21.52
2018-08-17T00:58:28.987Z,21.59
2018-08-17T00:59:29.895Z,21.53
2018-08-17T01:00:29.644Z,21.28
2018-08-17T01:01:29.551Z,21.45
2018-08-17T01:02:29.035Z,21.46
2018-08-17T01:03:29.993Z,21.45
2018-08-17T01:04:28.934Z,21.52
2018-08-17T01:05:29.916Z,21.40
2018-08-17T01:06:28.989Z,21.46
2018-08-17T01:07:29.496Z,21.34
2018-08-17T01:08:28.954Z,21.38
2018-08-17T01:09:29.439Z,21.43
2018-08-17T01:10:28.913Z,21.45
2018-08-17T01:11:29.436Z,21.31
2018-08-17T01:12:29.440Z,21.45
2018-08-17T01:13:29.264Z,21.43
2018-08-17T01:14:29.012Z,21.31
2018-08-17T01:15:30.425Z,21.40
2018-08-17T01:16:29.012Z,21.38
2018-08-17T01:17:29.395Z,21.42
2018-08-17T01:18:29.456Z,21.40
2018-08-17T01:19:29.685Z,21.38
2018-08-17T01:20:29.500Z,21.34
2018-08-17T01:21:29.018Z,21.37
2018-08-17T01:22:29.046Z,21.42
2018-08-17T01:23:29.484Z,21.42
2018-08-17T01:24:29.914Z,21.38
2018-08-17T01:25:29.014Z,21.36
2018-08-17T01:26:29.531Z,21.37
2018-08-17T01:27:29.501Z,21.34
2018-08-17T01:28:29.069Z,21.36
2018-08-17T01:29:30.005Z,21.37
2018-08-17T01:30:30.954Z,21.27
2018-08-17T01:31:30.787Z,21.27
2018-08-17T01:32:28.917Z,21.26
2018-08-17T01:33:31.607Z,21.31
2018-08-17T01:34:29.022Z,21.18
2018-08-17T01:35:30.329Z,21.18
2018-08-17T01:36:31.354Z,21.18
2018-08-17T01:37:29.031Z,21.31
2018-08-17T01:38:29.399Z,21.28
2018-08-17T01:39:29.423Z,21.27
2018-08-17T01:40:29.049Z,21.27
2018-08-17T01:41:29.345Z,21.13
2018-08-17T01:42:29.411Z,21.16
2018-08-17T01:43:29.039Z,20.94
2018-08-17T01:44:29.435Z,21.00
2018-08-17T01:45:29.417Z,21.08
2018-08-17T01:46:29.112Z,21.05
2018-08-17T01:47:29.497Z,21.11
2018-08-17T01:48:31.342Z,21.09
2018-08-17T01:49:29.046Z,21.01
2018-08-17T01:50:29.383Z,20.91
2018-08-17T01:51:29.436Z,21.05
2018-08-17T01:52:29.032Z,21.05
2018-08-17T01:53:29.423Z,21.13
2018-08-17T01:54:29.485Z,21.09
2018-08-17T01:55:31.006Z,20.98
2018-08-17T01:56:29.398Z,21.01
2018-08-17T01:57:29.434Z,21.09
2018-08-17T01:58:28.997Z,21.12
2018-08-17T01:59:29.385Z,21.01
2018-08-17T02:00:35.334Z,21.01
2018-08-17T02:01:29.005Z,20.90
2018-08-17T02:02:29.443Z,20.87
2018-08-17T02:03:29.380Z,20.79
2018-08-17T02:04:28.941Z,20.72
2018-08-17T02:05:29.403Z,20.71
2018-08-17T02:06:29.430Z,20.71
2018-08-17T02:07:30.943Z,20.78
2018-08-17T02:08:29.343Z,20.78
2018-08-17T02:09:29.460Z,20.60
2018-08-17T02:10:30.958Z,20.61
2018-08-17T02:11:29.412Z,20.56
2018-08-17T02:12:29.466Z,20.56
2018-08-17T02:13:29.078Z,20.54
2018-08-17T02:14:29.497Z,20.53
2018-08-17T02:15:29.426Z,20.54
2018-08-17T02:16:29.047Z,20.63
2018-08-17T02:17:29.448Z,20.44
2018-08-17T02:18:29.427Z,20.27
2018-08-17T02:19:29.122Z,20.48
2018-08-17T02:20:29.494Z,20.30
2018-08-17T02:21:29.445Z,20.27
2018-08-17T02:22:29.124Z,20.17
2018-08-17T02:23:29.457Z,20.33
2018-08-17T02:24:29.582Z,20.27
2018-08-17T02:25:29.123Z,20.23
2018-08-17T02:26:29.449Z,20.35
2018-08-17T02:27:29.400Z,20.35
2018-08-17T02:28:28.952Z,20.01
2018-08-17T02:29:29.048Z,20.10
2018-08-17T02:30:31.347Z,20.16
2018-08-17T02:31:28.984Z,20.25
2018-08-17T02:32:29.455Z,20.08
2018-08-17T02:33:29.347Z,20.27
2018-08-17T02:34:30.039Z,20.23
2018-08-17T02:35:29.463Z,20.17
2018-08-17T02:36:29.443Z,20.08
2018-08-17T02:37:28.994Z,20.02
2018-08-17T02:38:29.447Z,20.12
2018-08-17T02:39:29.443Z,20.23
2018-08-17T02:40:29.395Z,20.07
2018-08-17T02:41:29.575Z,20.02
2018-08-17T02:42:29.015Z,19.83
2018-08-17T02:43:29.585Z,19.95
2018-08-17T02:44:29.625Z,19.90
2018-08-17T02:45:29.445Z,19.97
2018-08-17T02:46:28.981Z,19.95
2018-08-17T02:47:29.425Z,20.01
2018-08-17T02:48:29.936Z,19.94
2018-08-17T02:49:29.096Z,19.97
2018-08-17T02:50:29.431Z,20.00
2018-08-17T02:51:29.431Z,20.04
2018-08-17T02:52:31.008Z,20.04
2018-08-17T02:53:29.368Z,19.95
2018-08-17T02:54:31.414Z,19.97
2018-08-17T02:55:29.021Z,20.01
2018-08-17T02:56:29.351Z,20.01
2018-08-17T02:57:29.345Z,19.86
2018-08-17T02:58:28.993Z,19.86
2018-08-17T02:59:29.605Z,19.90
2018-08-17T03:00:45.390Z,19.83
2018-08-17T03:01:28.972Z,19.87
2018-08-17T03:02:29.434Z,19.86
2018-08-17T03:03:29.406Z,19.89
2018-08-17T03:04:29.973Z,19.94
2018-08-17T03:05:29.431Z,19.97
2018-08-17T03:06:29.424Z,19.94
2018-08-17T03:07:30.940Z,19.89
2018-08-17T03:08:29.353Z,19.67
2018-08-17T03:09:29.437Z,19.94
2018-08-17T03:10:28.971Z,20.04
2018-08-17T03:11:29.439Z,19.87
2018-08-17T03:12:29.472Z,19.89
2018-08-17T03:13:29.095Z,20.04
2018-08-17T03:14:29.436Z,20.04
2018-08-17T03:15:29.424Z,19.92
2018-08-17T03:16:29.051Z,19.79
2018-08-17T03:17:29.384Z,19.68
2018-08-17T03:18:29.457Z,19.72
2018-08-17T03:19:29.039Z,19.65
2018-08-17T03:20:29.434Z,19.83
2018-08-17T03:21:33.404Z,19.89
2018-08-17T03:22:31.391Z,20.00
2018-08-17T03:23:29.468Z,20.02
2018-08-17T03:24:31.420Z,19.78
2018-08-17T03:25:29.467Z,19.78
2018-08-17T03:26:29.349Z,19.64
2018-08-17T03:27:29.416Z,19.50
2018-08-17T03:28:29.412Z,19.62
2018-08-17T03:29:29.352Z,19.82
2018-08-17T03:30:29.416Z,19.85
2018-08-17T03:31:29.404Z,19.94
2018-08-17T03:32:31.682Z,19.85
2018-08-17T03:33:29.422Z,19.68
2018-08-17T03:34:29.422Z,19.78
2018-08-17T03:35:29.463Z,19.94
2018-08-17T03:36:30.161Z,19.82
2018-08-17T03:37:30.987Z,19.79
2018-08-17T03:38:29.436Z,19.79
2018-08-17T03:39:29.657Z,19.80
2018-08-17T03:40:29.417Z,19.70
2018-08-17T03:41:29.200Z,19.85
2018-08-17T03:42:29.455Z,19.92
2018-08-17T03:43:28.932Z,19.78
2018-08-17T03:44:29.423Z,19.82
2018-08-17T03:45:29.428Z,19.82
2018-08-17T03:46:29.541Z,19.97
2018-08-17T03:47:29.428Z,19.97
2018-08-17T03:48:29.442Z,19.87
2018-08-17T03:49:29.365Z,19.98
2018-08-17T03:50:29.391Z,19.90
2018-08-17T03:51:29.474Z,19.95
2018-08-17T03:52:29.441Z,19.94
2018-08-17T03:53:29.459Z,19.97
2018-08-17T03:54:29.461Z,19.80
2018-08-17T03:55:29.403Z,19.60
2018-08-17T03:56:29.422Z,19.75
2018-08-17T03:57:29.353Z,19.76
2018-08-17T03:58:29.346Z,19.64
2018-08-17T03:59:29.369Z,19.67
2018-08-17T04:00:29.351Z,19.83
2018-08-17T04:01:29.442Z,19.95
2018-08-17T04:02:31.401Z,19.90
2018-08-17T04:03:29.428Z,20.01
2018-08-17T04:04:29.407Z,19.98
2018-08-17T04:05:29.367Z,20.07
2018-08-17T04:06:29.433Z,19.98
2018-08-17T04:07:29.416Z,20.02
2018-08-17T04:08:29.478Z,20.04
2018-08-17T04:09:29.441Z,19.98
2018-08-17T04:10:30.472Z,20.10
2018-08-17T04:11:29.420Z,20.07
2018-08-17T04:12:29.477Z,20.00
2018-08-17T04:13:29.492Z,19.80
2018-08-17T04:14:29.437Z,20.01
2018-08-17T04:15:30.566Z,20.05
2018-08-17T04:16:29.482Z,19.89
2018-08-17T04:17:29.063Z,19.94
2018-08-17T04:18:29.384Z,20.05
2018-08-17T04:19:29.436Z,20.15
2018-08-17T04:20:32.059Z,20.02
2018-08-17T04:21:29.456Z,19.89
2018-08-17T04:22:29.598Z,19.87
2018-08-17T04:23:29.621Z,20.02
2018-08-17T04:24:29.721Z,20.08
2018-08-17T04:25:31.624Z,20.19
2018-08-17T04:26:29.554Z,20.23
2018-08-17T04:27:29.635Z,20.15
2018-08-17T04:28:29.542Z,20.15
2018-08-17T04:29:29.453Z,20.10
2018-08-17T04:30:29.479Z,20.16
2018-08-17T04:31:29.592Z,20.23
2018-08-17T04:32:29.940Z,20.30
2018-08-17T04:33:29.432Z,20.19
2018-08-17T04:34:29.224Z,20.07
2018-08-17T04:35:30.102Z,20.17
2018-08-17T04:36:29.469Z,20.00
2018-08-17T04:37:29.505Z,20.02
2018-08-17T04:38:29.481Z,20.13
2018-08-17T04:39:29.679Z,20.15
2018-08-17T04:40:28.977Z,20.17
2018-08-17T04:41:30.724Z,20.25
2018-08-17T04:42:29.674Z,20.26
2018-08-17T04:44:29.396Z,20.20
2018-08-17T04:45:29.410Z,20.19
2018-08-17T04:46:29.407Z,20.13
2018-08-17T04:47:29.399Z,19.95
2018-08-17T04:48:29.392Z,19.97
2018-08-17T04:49:29.427Z,19.87
2018-08-17T04:50:29.638Z,19.94
2018-08-17T04:51:29.493Z,19.97
2018-08-17T04:52:29.984Z,20.01
2018-08-17T04:53:31.487Z,19.98
2018-08-17T04:54:27.859Z,19.87
2018-08-17T04:55:27.828Z,19.97
2018-08-17T04:56:29.011Z,19.80
2018-08-17T04:57:28.893Z,19.75
2018-08-17T04:58:27.868Z,19.92
2018-08-17T04:59:27.862Z,20.05
2018-08-17T05:00:27.862Z,20.00
2018-08-17T05:01:29.350Z,20.07
2018-08-17T05:02:27.830Z,20.02
2018-08-17T05:03:29.091Z,20.00
2018-08-17T05:04:27.838Z,20.05
2018-08-17T05:05:27.842Z,19.79
2018-08-17T05:06:28.469Z,19.80
2018-08-17T05:07:29.205Z,20.02
2018-08-17T05:08:30.660Z,20.15
2018-08-17T05:09:27.864Z,20.10
2018-08-17T05:10:28.879Z,20.12
2018-08-17T05:11:28.921Z,20.20
2018-08-17T05:12:28.573Z,20.19
2018-08-17T05:13:28.621Z,20.23
2018-08-17T05:14:28.131Z,20.23
2018-08-17T05:15:28.977Z,20.01
2018-08-17T05:16:29.157Z,20.27
2018-08-17T05:17:28.980Z,20.16
2018-08-17T05:18:30.388Z,20.26
2018-08-17T05:19:28.876Z,20.13
2018-08-17T05:20:29.262Z,20.22
2018-08-17T05:21:29.145Z,20.20
2018-08-17T05:22:29.148Z,20.23
2018-08-17T05:23:28.562Z,20.26
2018-08-17T05:24:28.575Z,20.12
2018-08-17T05:25:28.934Z,20.23
2018-08-17T05:26:28.905Z,20.30
2018-08-17T05:27:28.722Z,20.34
2018-08-17T05:28:28.919Z,20.38
2018-08-17T05:29:31.967Z,20.26
2018-08-17T05:30:29.003Z,20.07
2018-08-17T05:31:29.176Z,20.15
2018-08-17T05:32:28.908Z,20.08
2018-08-17T05:33:28.569Z,20.02
2018-08-17T05:34:28.595Z,20.00
2018-08-17T05:35:30.474Z,20.19
2018-08-17T05:36:28.578Z,20.05
2018-08-17T05:37:28.511Z,19.97
2018-08-17T05:38:27.809Z,19.95
2018-08-17T05:39:28.947Z,19.98
2018-08-17T05:40:29.008Z,20.02
2018-08-17T05:41:29.529Z,20.10
2018-08-17T05:42:29.487Z,20.01
2018-08-17T05:43:29.444Z,20.13
2018-08-17T05:44:29.558Z,20.27
2018-08-17T05:45:31.437Z,20.30
2018-08-17T05:46:29.486Z,20.33
2018-08-17T05:47:29.009Z,20.27
2018-08-17T05:48:29.747Z,20.20
2018-08-17T05:49:29.715Z,20.31
2018-08-17T05:50:30.031Z,20.25
2018-08-17T05:51:29.489Z,20.22
2018-08-17T05:52:29.515Z,20.23
2018-08-17T05:53:29.468Z,20.26
2018-08-17T05:54:29.987Z,20.20
2018-08-17T05:55:30.031Z,20.27
2018-08-17T05:56:29.573Z,20.20
2018-08-17T05:58:29.558Z,20.10
2018-08-17T05:59:29.666Z,20.07
2018-08-17T06:00:31.447Z,20.04
2018-08-17T06:01:29.454Z,19.97
2018-08-17T06:02:29.397Z,19.95
2018-08-17T06:03:29.534Z,20.04
2018-08-17T06:04:29.765Z,20.01
2018-08-17T06:05:30.195Z,19.92
2018-08-17T06:06:29.657Z,19.92
2018-08-17T06:07:29.691Z,19.98
2018-08-17T06:08:29.532Z,20.00
2018-08-17T06:09:29.492Z,20.04
2018-08-17T06:10:29.436Z,20.01
2018-08-17T06:11:29.592Z,20.02
2018-08-17T06:12:29.442Z,19.87
2018-08-17T06:13:31.413Z,19.98
2018-08-17T06:14:29.693Z,20.01
2018-08-17T06:15:31.668Z,20.13
2018-08-17T06:16:29.547Z,20.08
2018-08-17T06:17:30.032Z,20.16
2018-08-17T06:18:29.709Z,20.01
2018-08-17T06:19:29.447Z,19.92
2018-08-17T06:20:29.594Z,20.01
2018-08-17T06:21:29.468Z,20.05
2018-08-17T06:22:30.153Z,19.98
2018-08-17T06:23:30.216Z,19.83
2018-08-17T06:24:30.557Z,19.83
2018-08-17T06:25:31.007Z,19.72
2018-08-17T06:26:30.166Z,19.72
2018-08-17T06:27:28.931Z,19.60
2018-08-17T06:28:29.473Z,19.67
2018-08-17T06:29:31.479Z,19.68
2018-08-17T06:30:29.499Z,19.68
2018-08-17T06:31:29.653Z,19.47
2018-08-17T06:32:31.236Z,19.47
2018-08-17T06:33:30.595Z,19.47
2018-08-17T06:34:30.137Z,19.52
2018-08-17T06:35:29.426Z,19.45
2018-08-17T06:36:29.505Z,19.50
2018-08-17T06:37:29.484Z,19.60
2018-08-17T06:38:29.486Z,19.46
2018-08-17T06:39:29.480Z,19.53
2018-08-17T06:40:29.461Z,19.38
2018-08-17T06:41:29.490Z,19.40
2018-08-17T06:42:29.521Z,19.35
2018-08-17T06:44:29.537Z,19.47
2018-08-17T06:45:30.999Z,19.46
2018-08-17T06:46:31.489Z,19.47
2018-08-17T06:47:30.155Z,19.52
2018-08-17T06:48:29.498Z,19.46
2018-08-17T06:49:29.504Z,19.49
2018-08-17T06:50:29.490Z,19.35
2018-08-17T06:51:29.511Z,19.35
2018-08-17T06:52:30.141Z,19.45
2018-08-17T06:53:28.915Z,19.45
2018-08-17T06:54:30.217Z,19.35
2018-08-17T06:55:31.698Z,19.46
2018-08-17T06:56:30.296Z,19.47
2018-08-17T06:57:28.968Z,19.60
2018-08-17T06:58:29.545Z,19.61
2018-08-17T06:59:29.503Z,19.68
2018-08-17T07:00:29.728Z,19.72
2018-08-17T07:01:32.269Z,19.68
2018-08-17T07:02:28.926Z,19.67
2018-08-17T07:03:29.460Z,19.50
2018-08-17T07:04:29.454Z,19.49
2018-08-17T07:05:29.471Z,19.55
2018-08-17T07:06:29.470Z,19.58
2018-08-17T07:07:29.473Z,19.52
2018-08-17T07:08:29.461Z,19.50
2018-08-17T07:09:29.559Z,19.61
2018-08-17T07:10:29.474Z,19.47
2018-08-17T07:11:29.508Z,19.52
2018-08-17T07:12:29.998Z,19.60
2018-08-17T07:13:30.327Z,19.62
2018-08-17T07:14:29.866Z,19.65
2018-08-17T07:15:29.722Z,19.46
2018-08-17T07:16:30.046Z,19.39
2018-08-17T07:17:28.902Z,19.53
2018-08-17T07:18:29.306Z,19.53
2018-08-17T07:19:29.249Z,19.58
2018-08-17T07:20:29.219Z,19.62
2018-08-17T07:21:29.467Z,19.60
2018-08-17T07:22:29.209Z,19.64
2018-08-17T07:23:31.265Z,19.61
2018-08-17T07:24:29.305Z,19.60
2018-08-17T07:25:29.308Z,19.60
2018-08-17T07:26:29.499Z,19.65
2018-08-17T07:27:28.809Z,19.61
2018-08-17T07:28:30.921Z,19.60
2018-08-17T07:29:29.613Z,19.45
2018-08-17T07:30:29.235Z,19.52
2018-08-17T07:31:28.774Z,19.52
2018-08-17T07:32:29.020Z,19.24
2018-08-17T07:33:29.101Z,19.27
2018-08-17T07:34:31.081Z,19.24
2018-08-17T07:35:31.268Z,19.39
2018-08-17T07:36:29.077Z,19.38
2018-08-17T07:37:29.056Z,19.34
2018-08-17T07:38:29.133Z,19.43
2018-08-17T07:39:28.777Z,19.45
2018-08-17T07:40:29.559Z,19.30
2018-08-17T07:41:31.165Z,19.28
2018-08-17T07:42:29.580Z,19.34
2018-08-17T07:43:29.840Z,19.24
2018-08-17T07:44:28.809Z,19.39
2018-08-17T07:45:31.214Z,19.31
2018-08-17T07:46:29.105Z,19.47
2018-08-17T07:47:30.056Z,19.50
2018-08-17T07:48:29.458Z,19.47
2018-08-17T07:49:31.383Z,19.52
2018-08-17T07:50:31.043Z,19.52
2018-08-17T07:51:30.307Z,19.50
2018-08-17T07:52:30.074Z,19.53
2018-08-17T07:53:29.282Z,19.60
2018-08-17T07:54:30.757Z,19.62
2018-08-17T07:55:29.585Z,19.60
2018-08-17T07:56:31.537Z,19.61
2018-08-17T07:57:29.229Z,19.60
2018-08-17T07:58:29.537Z,19.53
2018-08-17T07:59:29.743Z,19.57
2018-08-17T08:00:29.234Z,19.61
2018-08-17T08:01:29.747Z,19.49
2018-08-17T08:02:28.785Z,19.31
2018-08-17T08:03:29.848Z,19.32
2018-08-17T08:04:29.173Z,19.47
2018-08-17T08:05:29.015Z,19.43
2018-08-17T08:06:29.002Z,19.47
2018-08-17T08:07:31.151Z,19.47
2018-08-17T08:08:29.255Z,19.43
2018-08-17T08:09:29.750Z,19.46
2018-08-17T08:10:30.040Z,19.57
2018-08-17T08:11:50.645Z,19.61
2018-08-17T08:12:29.140Z,19.58
2018-08-17T08:13:29.791Z,19.52
2018-08-17T08:14:30.144Z,19.25
2018-08-17T08:15:29.278Z,19.20
2018-08-17T08:16:29.338Z,19.34
2018-08-17T08:17:29.396Z,19.43
2018-08-17T08:18:31.700Z,19.52
2018-08-17T08:19:29.400Z,19.58
2018-08-17T08:20:29.810Z,19.46
2018-08-17T08:21:50.572Z,19.52
2018-08-17T08:22:43.936Z,19.61
2018-08-17T08:23:30.871Z,19.64
2018-08-17T08:24:29.147Z,19.61
2018-08-17T08:25:29.190Z,19.64
2018-08-17T08:26:30.543Z,19.70
2018-08-17T08:27:29.382Z,19.68
2018-08-17T08:28:29.320Z,19.65
2018-08-17T08:29:31.196Z,19.70
2018-08-17T08:30:29.431Z,19.65
2018-08-17T08:31:29.575Z,19.70
2018-08-17T08:32:31.034Z,19.71
2018-08-17T08:33:29.053Z,19.80
2018-08-17T08:34:30.834Z,19.83
2018-08-17T08:35:29.694Z,19.95
2018-08-17T08:36:29.246Z,19.98
2018-08-17T08:37:30.224Z,20.04
2018-08-17T08:38:29.034Z,20.07
2018-08-17T08:39:30.052Z,20.13
2018-08-17T08:40:29.942Z,20.00
2018-08-17T08:41:31.767Z,20.13
2018-08-17T08:42:50.774Z,20.13
2018-08-17T08:43:29.201Z,20.17
2018-08-17T08:44:29.066Z,20.26
2018-08-17T08:45:28.797Z,20.31
2018-08-17T08:46:34.976Z,20.34
2018-08-17T08:47:29.784Z,20.40
2018-08-17T08:48:29.451Z,20.56
2018-08-17T08:49:29.114Z,20.66
2018-08-17T08:50:29.580Z,20.61
2018-08-17T08:51:29.059Z,20.68
2018-08-17T08:52:30.683Z,20.66
2018-08-17T08:53:29.240Z,20.60
2018-08-17T08:54:29.640Z,20.68
2018-08-17T08:55:29.286Z,20.75
2018-08-17T08:56:29.799Z,20.53
2018-08-17T08:57:28.791Z,20.72
2018-08-17T08:58:32.179Z,20.96
2018-08-17T08:59:28.796Z,20.94
2018-08-17T09:00:29.076Z,20.93
2018-08-17T09:01:30.426Z,21.12
2018-08-17T09:02:30.806Z,20.98
2018-08-17T09:03:29.097Z,21.00
2018-08-17T09:04:31.536Z,20.97
2018-08-17T09:05:29.656Z,21.16
2018-08-17T09:06:31.725Z,21.40
2018-08-17T09:07:29.119Z,21.28
2018-08-17T09:08:29.770Z,21.22
2018-08-17T09:09:29.759Z,21.36
2018-08-17T09:10:28.829Z,21.38
2018-08-17T09:11:29.782Z,21.38
2018-08-17T09:12:29.241Z,21.46
2018-08-17T09:13:29.154Z,21.38
2018-08-17T09:14:30.664Z,21.33
2018-08-17T09:15:29.567Z,21.15
2018-08-17T09:16:29.794Z,21.08
2018-08-17T09:17:29.774Z,21.09
2018-08-17T09:18:29.153Z,20.91
2018-08-17T09:19:29.214Z,21.06
2018-08-17T09:20:27.868Z,21.13
2018-08-17T09:21:29.252Z,21.21
2018-08-17T09:22:30.095Z,21.16
2018-08-17T09:23:29.042Z,21.16
2018-08-17T09:24:29.801Z,21.15
2018-08-17T09:25:30.729Z,21.18
2018-08-17T09:26:29.249Z,21.18
2018-08-17T09:27:30.833Z,21.09
2018-08-17T09:28:29.374Z,21.26
2018-08-17T09:29:29.304Z,21.42
2018-08-17T09:30:29.171Z,21.52
2018-08-17T09:31:29.245Z,21.58
2018-08-17T09:32:31.227Z,21.59
2018-08-17T09:33:29.093Z,21.61
2018-08-17T09:34:29.076Z,21.66
2018-08-17T09:35:29.728Z,21.64
2018-08-17T09:36:29.108Z,21.49
2018-08-17T09:37:29.172Z,21.28
2018-08-17T09:38:29.143Z,21.48
2018-08-17T09:39:29.576Z,21.37
2018-08-17T09:40:29.499Z,21.28
2018-08-17T09:41:29.671Z,21.37
2018-08-17T09:42:29.181Z,21.34
2018-08-17T09:43:29.196Z,21.12
2018-08-17T09:44:29.737Z,21.27
2018-08-17T09:45:29.598Z,21.27
2018-08-17T09:46:29.802Z,21.22
2018-08-17T09:47:29.784Z,21.15
2018-08-17T09:48:28.816Z,21.27
2018-08-17T09:49:29.584Z,21.16
2018-08-17T09:50:29.787Z,21.27
2018-08-17T09:51:31.237Z,21.19
2018-08-17T09:52:29.841Z,21.13
2018-08-17T09:53:31.243Z,21.26
2018-08-17T09:54:29.578Z,21.15
2018-08-17T09:55:29.308Z,21.16
2018-08-17T09:56:29.153Z,21.13
2018-08-17T09:57:29.650Z,21.13
2018-08-17T09:58:30.788Z,21.26
2018-08-17T09:59:29.393Z,21.16
2018-08-17T10:00:29.820Z,21.28
2018-08-17T10:01:28.821Z,21.28
2018-08-17T10:02:31.325Z,21.24
2018-08-17T10:03:29.402Z,21.36
2018-08-17T10:04:29.719Z,21.11
2018-08-17T10:05:30.327Z,20.93
2018-08-17T10:06:29.590Z,21.08
2018-08-17T10:07:29.033Z,21.19
2018-08-17T10:08:29.322Z,20.91
2018-08-17T10:09:29.579Z,20.94
2018-08-17T10:10:31.588Z,20.91
2018-08-17T10:11:29.386Z,21.01
2018-08-17T10:12:28.826Z,20.78
2018-08-17T10:13:30.352Z,20.68
2018-08-17T10:14:29.498Z,20.79
2018-08-17T10:15:29.607Z,20.57
2018-08-17T10:16:30.147Z,20.63
2018-08-17T10:17:31.170Z,20.69
2018-08-17T10:18:31.241Z,20.69
2018-08-17T10:19:29.283Z,20.87
2018-08-17T10:20:29.263Z,20.82
2018-08-17T10:21:54.504Z,20.81
2018-08-17T10:22:29.234Z,20.68
2018-08-17T10:23:29.495Z,20.69
2018-08-17T10:24:30.819Z,20.83
2018-08-17T10:25:29.812Z,20.83
2018-08-17T10:26:29.290Z,20.50
2018-08-17T10:27:29.821Z,20.82
2018-08-17T10:28:30.338Z,20.76
2018-08-17T10:29:29.208Z,20.91
2018-08-17T10:30:29.348Z,20.97
2018-08-17T10:31:29.339Z,21.11
2018-08-17T10:32:29.322Z,21.28
2018-08-17T10:33:30.766Z,21.12
2018-08-17T10:34:29.173Z,21.18
2018-08-17T10:35:29.255Z,21.22
2018-08-17T10:36:29.259Z,21.37
2018-08-17T10:37:27.764Z,21.40
2018-08-17T10:38:29.353Z,21.34
2018-08-17T10:39:29.123Z,21.31
2018-08-17T10:40:29.125Z,21.56
2018-08-17T10:41:29.164Z,21.51
2018-08-17T10:42:29.133Z,21.55
2018-08-17T10:43:31.577Z,21.70
2018-08-17T10:44:29.174Z,21.90
2018-08-17T10:45:29.804Z,21.94
2018-08-17T10:46:29.299Z,22.17
2018-08-17T10:47:30.579Z,21.93
2018-08-17T10:48:29.830Z,21.93
2018-08-17T10:49:29.564Z,22.08
2018-08-17T10:50:29.811Z,22.19
2018-08-17T10:51:29.619Z,22.29
2018-08-17T10:52:29.759Z,22.60
2018-08-17T10:53:29.813Z,22.59
2018-08-17T10:54:29.252Z,22.82
2018-08-17T10:55:29.329Z,22.63
2018-08-17T10:56:28.909Z,22.57
2018-08-17T10:57:29.421Z,22.30
2018-08-17T10:58:29.672Z,22.27
2018-08-17T10:59:29.312Z,22.17
2018-08-17T11:00:31.805Z,22.29
2018-08-17T11:01:30.344Z,22.19
2018-08-17T11:02:29.391Z,22.23
2018-08-17T11:03:29.455Z,22.23
2018-08-17T11:04:29.528Z,22.57
2018-08-17T11:05:29.763Z,22.38
2018-08-17T11:06:28.877Z,22.14
2018-08-17T11:07:29.161Z,22.08
2018-08-17T11:08:29.657Z,21.90
2018-08-17T11:09:30.462Z,21.74
2018-08-17T11:10:29.254Z,21.73
2018-08-17T11:11:27.818Z,21.63
2018-08-17T11:12:29.888Z,21.55
2018-08-17T11:13:29.600Z,21.48
2018-08-17T11:14:31.371Z,21.63
2018-08-17T11:15:29.612Z,21.56
2018-08-17T11:16:29.308Z,21.70
2018-08-17T11:17:29.511Z,21.79
2018-08-17T11:18:29.850Z,21.79
2018-08-17T11:19:29.176Z,21.43
2018-08-17T11:20:29.622Z,21.59
2018-08-17T11:21:29.645Z,21.56
2018-08-17T11:22:30.189Z,21.53
2018-08-17T11:23:30.125Z,21.68
2018-08-17T11:24:29.188Z,21.59
2018-08-17T11:25:29.758Z,21.74
2018-08-17T11:26:29.814Z,21.81
2018-08-17T11:27:29.483Z,21.67
2018-08-17T11:28:29.723Z,21.83
2018-08-17T11:29:31.179Z,22.08
2018-08-17T11:30:29.364Z,22.19
2018-08-17T11:31:27.871Z,21.99
2018-08-17T11:32:29.305Z,22.19
2018-08-17T11:33:28.897Z,22.08
2018-08-17T11:34:29.773Z,21.94
2018-08-17T11:35:30.245Z,21.85
2018-08-17T11:36:29.149Z,21.94
2018-08-17T11:37:28.884Z,22.06
2018-08-17T11:38:29.376Z,21.99
2018-08-17T11:39:29.320Z,21.99
2018-08-17T11:40:29.553Z,21.73
2018-08-17T11:41:29.348Z,21.83
2018-08-17T11:42:29.175Z,21.91
2018-08-17T11:43:29.823Z,22.08
2018-08-17T11:46:02.638Z,22.23
2018-08-17T11:47:02.792Z,22.33
2018-08-17T11:48:02.752Z,22.42
2018-08-17T11:49:02.771Z,22.57
2018-08-17T11:50:02.795Z,22.74
2018-08-17T11:51:02.788Z,23.06
2018-08-17T11:52:02.737Z,23.12
2018-08-17T11:53:02.774Z,23.42
2018-08-17T11:54:02.942Z,23.50
2018-08-17T11:55:02.709Z,23.45
2018-08-17T11:56:02.993Z,23.45
2018-08-17T11:57:03.287Z,23.19
2018-08-17T11:58:04.059Z,22.91
2018-08-17T11:59:02.753Z,22.49
2018-08-17T12:00:02.797Z,22.48
2018-08-17T12:01:03.013Z,22.46
2018-08-17T12:02:02.877Z,22.52
2018-08-17T12:03:04.112Z,22.21
2018-08-17T12:04:02.323Z,22.33
2018-08-17T12:05:02.752Z,21.99
2018-08-17T12:06:02.771Z,21.81
2018-08-17T12:07:02.779Z,21.85
2018-08-17T12:08:02.997Z,21.91
2018-08-17T12:09:02.996Z,21.71
2018-08-17T12:10:02.890Z,21.83
2018-08-17T12:11:03.418Z,21.94
2018-08-17T12:12:02.726Z,21.89
2018-08-17T12:13:02.312Z,21.82
2018-08-17T12:14:03.419Z,21.83
2018-08-17T12:15:02.718Z,21.75
2018-08-17T12:16:03.193Z,21.63
2018-08-17T12:17:02.739Z,21.53
2018-08-17T12:18:04.213Z,21.61
2018-08-17T12:19:02.829Z,21.56
2018-08-17T12:20:03.374Z,21.52
2018-08-17T12:21:02.376Z,21.63
2018-08-17T12:22:03.354Z,21.24
2018-08-17T12:23:03.198Z,21.19
2018-08-17T12:24:02.783Z,21.28
2018-08-17T12:25:03.072Z,21.24
2018-08-17T12:26:02.801Z,21.36
2018-08-17T12:27:02.785Z,21.36
2018-08-17T12:28:02.845Z,21.31
2018-08-17T12:29:03.029Z,21.46
2018-08-17T12:30:23.488Z,21.52
2018-08-17T12:31:02.811Z,21.49
2018-08-17T12:32:02.832Z,21.61
2018-08-17T12:33:02.987Z,21.70
2018-08-17T12:34:02.394Z,21.79
2018-08-17T12:35:02.722Z,21.91
2018-08-17T12:36:03.341Z,21.89
2018-08-17T12:37:02.767Z,21.86
2018-08-17T12:38:09.292Z,21.90
2018-08-17T12:39:03.000Z,21.81
2018-08-17T12:40:02.482Z,21.73
2018-08-17T12:41:02.997Z,21.79
2018-08-17T12:42:02.948Z,21.83
2018-08-17T12:43:02.393Z,21.79
2018-08-17T12:44:02.763Z,21.93
2018-08-17T12:45:02.946Z,21.89
2018-08-17T12:46:03.272Z,21.55
2018-08-17T12:47:03.318Z,21.77
2018-08-17T12:48:03.298Z,21.71
2018-08-17T12:49:02.696Z,21.79
2018-08-17T12:51:40.117Z,21.86
2018-08-17T12:52:35.757Z,21.91
2018-08-17T12:54:29.616Z,22.63
2018-08-17T12:55:29.953Z,23.25
2018-08-17T12:56:30.482Z,24.29
2018-08-17T12:57:29.569Z,24.84
2018-08-17T12:58:30.261Z,24.64
2018-08-17T12:59:29.313Z,24.82
2018-08-17T13:00:30.683Z,25.35
2018-08-17T13:01:30.159Z,26.32